Time;durP1;ratioP1;P1;durP2;ratioP2;P2;SDS_P1;SDS_P2;PMS_P1;PMS_P2;Temp;Humidity;BMP_temperature;BMP_pressure;BME280_temperature;BME280_humidity;BME280_pressure;Samples;Min_cycle;Max_cycle;Signal;HPM_P1;HPM_P2
2021/09/05 00:02:20;;;;;;;1.30;0.80;;;15.00;99.90;;;;;;4959709;29;20438;-89
2021/09/05 00:04:47;;;;;;;0.50;0.50;;;15.00;99.90;;;;;;4959265;29;20462;-90
2021/09/05 00:07:14;;;;;;;1.07;0.83;;;15.00;99.90;;;;;;4959509;29;20458;-89
2021/09/05 00:09:41;;;;;;;2.03;1.23;;;15.00;99.90;;;;;;4959577;29;20449;-89
2021/09/05 00:12:09;;;;;;;1.17;1.00;;;15.00;99.90;;;;;;4959530;29;20800;-89
2021/09/05 00:14:36;;;;;;;3.23;0.80;;;14.90;99.90;;;;;;4959066;29;20493;-89
2021/09/05 00:17:03;;;;;;;0.60;0.60;;;14.90;99.90;;;;;;4959510;29;20454;-89
2021/09/05 00:19:31;;;;;;;1.70;0.57;;;14.90;99.90;;;;;;4959325;29;20490;-89
2021/09/05 00:21:58;;;;;;;2.03;1.00;;;14.80;99.90;;;;;;4959221;29;20828;-89
2021/09/05 00:24:24;;;;;;;2.40;1.50;;;14.80;99.90;;;;;;4959023;29;20461;-89
2021/09/05 00:26:51;;;;;;;4.43;1.00;;;14.80;99.90;;;;;;4959048;29;20438;-89
2021/09/05 00:29:19;;;;;;;5.03;1.00;;;14.70;99.90;;;;;;4958989;29;20453;-89
2021/09/05 00:31:45;;;;;;;1.33;0.83;;;14.70;99.90;;;;;;4959200;29;20452;-89
2021/09/05 00:34:12;;;;;;;2.10;1.20;;;14.70;99.90;;;;;;4958789;29;20484;-89
2021/09/05 00:36:40;;;;;;;0.93;0.67;;;14.80;99.90;;;;;;4959190;29;20454;-89
2021/09/05 00:39:07;;;;;;;0.97;0.87;;;14.80;99.90;;;;;;4958919;29;20443;-89
2021/09/05 00:41:34;;;;;;;0.83;0.77;;;14.80;99.90;;;;;;4959541;29;20435;-89
2021/09/05 00:44:03;;;;;;;3.40;1.33;;;14.80;99.90;;;;;;4959038;29;20477;-89
2021/09/05 00:46:31;;;;;;;1.70;0.73;;;14.80;99.90;;;;;;4958709;29;20966;-89
2021/09/05 00:48:58;;;;;;;2.10;1.10;;;14.80;99.90;;;;;;4958801;29;20449;-89
2021/09/05 00:51:30;;;;;;;0.97;0.73;;;14.80;99.90;;;;;;4958960;29;20450;-89
2021/09/05 00:53:59;;;;;;;1.10;0.87;;;14.80;99.90;;;;;;4958772;29;20533;-88
2021/09/05 00:56:27;;;;;;;0.70;0.60;;;14.80;99.90;;;;;;4958945;29;20453;-89
2021/09/05 00:58:55;;;;;;;0.90;0.90;;;14.80;99.90;;;;;;4958926;29;20529;-89
2021/09/05 01:01:22;;;;;;;1.20;1.00;;;14.80;99.90;;;;;;4959163;29;20545;-89
2021/09/05 01:03:49;;;;;;;1.57;0.97;;;14.80;99.90;;;;;;4958491;29;20477;-90
2021/09/05 01:06:16;;;;;;;1.47;0.60;;;14.80;99.90;;;;;;4958948;29;20454;-89
2021/09/05 01:08:43;;;;;;;1.17;1.07;;;14.70;99.90;;;;;;4958413;29;20443;-89
2021/09/05 01:11:11;;;;;;;0.80;0.80;;;14.70;99.90;;;;;;4957244;28;20817;-89
2021/09/05 01:13:38;;;;;;;1.30;0.70;;;14.60;99.90;;;;;;4958056;29;20465;-89
2021/09/05 01:16:05;;;;;;;1.40;0.73;;;14.60;99.90;;;;;;4958147;29;20445;-89
2021/09/05 01:18:32;;;;;;;1.00;0.60;;;14.60;99.90;;;;;;4958252;29;20451;-89
2021/09/05 01:20:59;;;;;;;1.03;1.03;;;14.50;99.90;;;;;;4957932;29;20486;-89
2021/09/05 01:23:25;;;;;;;0.83;0.80;;;14.50;99.90;;;;;;4957927;29;20982;-89
2021/09/05 01:25:52;;;;;;;3.40;1.33;;;14.50;99.90;;;;;;4957921;29;20442;-89
2021/09/05 01:28:20;;;;;;;1.83;0.80;;;14.50;99.90;;;;;;4958199;29;20462;-89
2021/09/05 01:30:47;;;;;;;0.80;0.70;;;14.40;99.90;;;;;;4958085;29;20469;-89
2021/09/05 01:33:15;;;;;;;1.60;0.67;;;14.40;99.90;;;;;;4958032;29;20476;-89
2021/09/05 01:35:42;;;;;;;0.80;0.60;;;14.40;99.90;;;;;;4957814;29;20482;-89
2021/09/05 01:38:09;;;;;;;1.63;1.07;;;14.40;99.90;;;;;;4957959;29;20454;-89
2021/09/05 01:40:36;;;;;;;1.27;1.17;;;14.30;99.90;;;;;;4957677;29;20434;-89
2021/09/05 01:43:02;;;;;;;1.90;0.90;;;14.30;99.90;;;;;;4958380;29;20804;-89
2021/09/05 01:45:30;;;;;;;0.87;0.87;;;14.30;99.90;;;;;;4957895;29;20456;-89
2021/09/05 01:47:57;;;;;;;2.33;2.13;;;14.40;99.90;;;;;;4958722;29;20442;-89
2021/09/05 01:50:24;;;;;;;0.90;0.90;;;14.40;99.90;;;;;;4958299;29;20446;-89
2021/09/05 01:52:51;;;;;;;1.10;1.00;;;14.40;99.90;;;;;;4958043;29;20450;-89
2021/09/05 01:55:18;;;;;;;2.80;1.20;;;14.40;99.90;;;;;;4957268;29;20482;-89
2021/09/05 01:57:44;;;;;;;1.63;1.03;;;14.30;99.90;;;;;;4957821;29;20457;-89
2021/09/05 02:00:12;;;;;;;2.10;0.83;;;14.40;99.90;;;;;;4957869;29;20446;-89
2021/09/05 02:02:40;;;;;;;2.33;1.43;;;14.30;99.90;;;;;;4957220;29;20973;-89
2021/09/05 02:05:08;;;;;;;4.00;0.90;;;14.30;99.90;;;;;;4957427;29;20463;-89
2021/09/05 02:07:35;;;;;;;4.27;0.97;;;14.30;99.90;;;;;;4957446;29;20466;-89
2021/09/05 02:10:02;;;;;;;1.37;1.03;;;14.30;99.90;;;;;;4957217;29;20450;-89
2021/09/05 02:12:28;;;;;;;1.30;0.63;;;14.20;99.90;;;;;;4957676;29;20447;-89
2021/09/05 02:14:55;;;;;;;0.70;0.60;;;14.20;99.90;;;;;;4957450;29;20489;-89
2021/09/05 02:17:22;;;;;;;1.17;0.63;;;14.20;99.90;;;;;;4957067;29;20450;-89
2021/09/05 02:19:50;;;;;;;1.77;1.00;;;14.20;99.90;;;;;;4957136;29;20509;-89
2021/09/05 02:22:17;;;;;;;1.00;0.70;;;14.20;99.90;;;;;;4956762;28;20454;-89
2021/09/05 02:24:43;;;;;;;0.67;0.67;;;14.30;99.90;;;;;;4956975;29;20476;-89
2021/09/05 02:27:10;;;;;;;0.70;0.70;;;14.30;99.90;;;;;;4956827;29;20439;-89
2021/09/05 02:29:37;;;;;;;0.83;0.83;;;14.30;99.90;;;;;;4957064;29;20931;-89
2021/09/05 02:32:04;;;;;;;1.17;1.17;;;14.30;99.90;;;;;;4956778;29;20457;-88
2021/09/05 02:34:31;;;;;;;1.40;0.73;;;14.30;99.90;;;;;;4956794;29;20501;-88
2021/09/05 02:37:00;;;;;;;1.60;1.00;;;14.30;99.90;;;;;;4957036;29;20457;-89
2021/09/05 02:39:26;;;;;;;0.90;0.90;;;14.20;99.90;;;;;;4956822;29;20435;-89
2021/09/05 02:41:53;;;;;;;3.53;0.67;;;14.20;99.90;;;;;;4956897;29;20961;-89
2021/09/05 02:44:20;;;;;;;1.70;1.10;;;14.20;99.90;;;;;;4956556;29;20459;-89
2021/09/05 02:46:47;;;;;;;0.53;0.53;;;14.30;99.90;;;;;;4956982;29;20450;-89
2021/09/05 02:49:13;;;;;;;0.50;0.50;;;14.20;99.90;;;;;;4956484;29;20438;-89
2021/09/05 02:51:42;;;;;;;3.53;0.70;;;14.20;99.90;;;;;;4956717;29;20438;-89
2021/09/05 02:54:10;;;;;;;0.87;0.83;;;14.20;99.90;;;;;;4956478;29;20505;-89
2021/09/05 02:56:37;;;;;;;1.63;1.10;;;14.10;99.90;;;;;;4956540;29;20457;-89
2021/09/05 02:59:04;;;;;;;1.47;0.80;;;14.10;99.90;;;;;;4956646;29;20455;-89
2021/09/05 03:01:31;;;;;;;1.03;0.63;;;14.10;99.90;;;;;;4956230;29;20441;-89
2021/09/05 03:03:58;;;;;;;0.60;0.57;;;14.10;99.90;;;;;;4956321;29;20473;-89
2021/09/05 03:06:25;;;;;;;1.30;0.57;;;14.10;99.90;;;;;;4956557;29;20455;-89
2021/09/05 03:08:51;;;;;;;1.43;0.70;;;14.10;99.90;;;;;;4956962;29;20454;-88
2021/09/05 03:11:19;;;;;;;1.43;0.70;;;14.10;99.90;;;;;;4956299;29;20462;-89
2021/09/05 03:13:47;;;;;;;1.13;0.63;;;14.00;99.90;;;;;;4956451;29;20466;-89
2021/09/05 03:16:14;;;;;;;0.93;0.60;;;14.10;99.90;;;;;;4956443;29;20486;-89
2021/09/05 03:18:41;;;;;;;0.90;0.70;;;14.10;99.90;;;;;;4956598;29;20502;-89
2021/09/05 03:21:08;;;;;;;1.63;1.53;;;14.00;99.90;;;;;;4956080;29;20497;-89
2021/09/05 03:23:35;;;;;;;1.67;0.90;;;14.00;99.90;;;;;;4956253;29;20462;-89
2021/09/05 03:26:01;;;;;;;0.70;0.70;;;13.90;99.90;;;;;;4956720;29;20450;-89
2021/09/05 03:28:29;;;;;;;1.13;1.00;;;13.90;99.90;;;;;;4956236;29;20827;-89
2021/09/05 03:30:56;;;;;;;1.80;1.30;;;13.90;99.90;;;;;;4956309;29;20441;-89
2021/09/05 03:33:23;;;;;;;0.90;0.77;;;13.90;99.90;;;;;;4956827;28;20499;-89
2021/09/05 03:35:51;;;;;;;0.83;0.60;;;13.90;99.90;;;;;;4959933;29;20482;-89
2021/09/05 03:38:17;;;;;;;1.17;0.90;;;13.90;99.90;;;;;;4960325;29;20950;-89
2021/09/05 03:40:44;;;;;;;0.63;0.63;;;13.90;99.90;;;;;;4960142;29;20466;-89
2021/09/05 03:43:11;;;;;;;2.30;1.23;;;13.90;99.90;;;;;;4960118;29;21005;-89
2021/09/05 03:45:39;;;;;;;1.40;1.30;;;13.90;99.90;;;;;;4960095;29;20505;-89
2021/09/05 03:48:06;;;;;;;3.33;1.07;;;13.90;99.90;;;;;;4960011;29;20465;-89
2021/09/05 03:50:33;;;;;;;1.13;0.60;;;13.80;99.90;;;;;;4959565;29;20434;-89
2021/09/05 03:53:00;;;;;;;1.27;0.73;;;13.80;99.90;;;;;;4959732;29;20446;-89
2021/09/05 03:55:27;;;;;;;4.33;1.07;;;13.80;99.90;;;;;;4959827;29;20490;-89
2021/09/05 03:57:53;;;;;;;2.20;0.67;;;13.70;99.90;;;;;;4959460;29;21046;-88
2021/09/05 04:00:20;;;;;;;0.60;0.53;;;13.70;99.90;;;;;;4959566;29;20438;-89
2021/09/05 04:02:48;;;;;;;0.70;0.60;;;13.80;99.90;;;;;;4959386;29;20446;-89
2021/09/05 04:05:15;;;;;;;5.27;1.80;;;13.70;99.90;;;;;;4959386;29;20453;-89
2021/09/05 04:07:44;;;;;;;3.47;0.93;;;13.70;99.90;;;;;;4959262;29;20935;-89
2021/09/05 04:10:13;;;;;;;1.43;0.73;;;13.70;99.90;;;;;;4959525;29;20454;-89
2021/09/05 04:12:41;;;;;;;0.60;0.60;;;13.70;99.90;;;;;;4959501;29;20485;-89
2021/09/05 04:15:10;;;;;;;0.50;0.50;;;13.70;99.90;;;;;;4959379;29;20887;-89
2021/09/05 04:17:37;;;;;;;0.80;0.60;;;13.70;99.90;;;;;;4959371;29;20434;-89
2021/09/05 04:20:07;;;;;;;2.10;1.10;;;13.70;99.90;;;;;;4959155;29;20494;-89
2021/09/05 04:22:33;;;;;;;1.23;0.50;;;13.70;99.90;;;;;;4959269;29;20449;-89
2021/09/05 04:25:00;;;;;;;1.33;0.87;;;13.70;99.90;;;;;;4959197;29;20477;-89
2021/09/05 04:27:27;;;;;;;1.00;0.60;;;13.70;99.90;;;;;;4959037;29;20451;-89
2021/09/05 04:29:54;;;;;;;0.80;0.80;;;13.70;99.90;;;;;;4959252;29;20454;-89
2021/09/05 04:32:21;;;;;;;1.03;0.80;;;13.60;99.90;;;;;;4959231;29;20462;-89
2021/09/05 04:34:48;;;;;;;0.80;0.80;;;13.70;99.90;;;;;;4958979;29;20962;-89
2021/09/05 04:37:17;;;;;;;0.93;0.70;;;13.70;99.90;;;;;;4958860;29;20430;-89
2021/09/05 04:39:44;;;;;;;1.40;1.20;;;13.60;99.90;;;;;;4958983;29;20818;-89
2021/09/05 04:42:11;;;;;;;1.53;0.70;;;13.60;99.90;;;;;;4958855;29;20438;-89
2021/09/05 04:44:39;;;;;;;3.90;1.53;;;13.60;99.90;;;;;;4958557;28;20835;-89
2021/09/05 04:47:06;;;;;;;1.70;0.87;;;13.60;99.90;;;;;;4958931;29;20446;-89
2021/09/05 04:49:33;;;;;;;5.03;1.03;;;13.60;99.90;;;;;;4958993;29;20454;-89
2021/09/05 04:52:00;;;;;;;3.27;2.30;;;13.60;99.90;;;;;;4958713;29;20457;-89
2021/09/05 04:54:28;;;;;;;0.73;0.73;;;13.60;99.90;;;;;;4958697;29;20847;-88
2021/09/05 04:56:55;;;;;;;1.63;0.73;;;13.60;99.90;;;;;;4958310;29;20493;-88
2021/09/05 04:59:22;;;;;;;2.40;0.93;;;13.60;99.90;;;;;;4958664;29;20450;-89
2021/09/05 05:01:48;;;;;;;1.50;1.30;;;13.60;99.90;;;;;;4958519;29;20450;-89
2021/09/05 05:04:15;;;;;;;3.80;1.13;;;13.60;99.90;;;;;;4958213;29;20454;-89
2021/09/05 05:06:42;;;;;;;1.23;1.10;;;13.60;99.90;;;;;;4959077;29;20477;-89
2021/09/05 05:09:10;;;;;;;1.00;0.90;;;13.60;99.90;;;;;;4958472;29;20446;-89
2021/09/05 05:11:38;;;;;;;3.43;1.00;;;13.70;99.90;;;;;;4958898;29;20461;-88
2021/09/05 05:14:07;;;;;;;1.87;0.97;;;13.70;99.90;;;;;;4958204;29;20450;-89
2021/09/05 05:16:33;;;;;;;0.50;0.50;;;13.70;99.90;;;;;;4958013;29;20490;-89
2021/09/05 05:19:01;;;;;;;1.07;0.80;;;13.70;99.90;;;;;;4958308;29;20450;-88
2021/09/05 05:21:28;;;;;;;0.77;0.63;;;13.70;99.90;;;;;;4958442;29;20418;-89
2021/09/05 05:23:54;;;;;;;5.57;1.43;;;13.80;99.90;;;;;;4958199;29;20478;-89
2021/09/05 05:26:21;;;;;;;0.67;0.63;;;13.80;99.90;;;;;;4957908;29;20455;-89
2021/09/05 05:28:49;;;;;;;0.60;0.60;;;13.80;99.90;;;;;;4957956;29;20450;-88
2021/09/05 05:31:16;;;;;;;1.43;0.80;;;13.80;99.90;;;;;;4958056;29;20458;-89
2021/09/05 05:33:43;;;;;;;2.50;0.70;;;13.90;99.90;;;;;;4957975;29;20834;-89
2021/09/05 05:36:10;;;;;;;2.27;0.93;;;13.90;99.90;;;;;;4957909;29;20488;-88
2021/09/05 05:38:38;;;;;;;1.70;1.30;;;13.90;99.90;;;;;;4957819;29;20443;-88
2021/09/05 05:41:04;;;;;;;1.20;0.90;;;13.90;99.90;;;;;;4957964;29;20451;-89
2021/09/05 05:43:33;;;;;;;2.10;0.70;;;13.90;99.90;;;;;;4957888;29;20470;-89
2021/09/05 05:46:01;;;;;;;2.40;0.80;;;13.90;99.90;;;;;;4957828;29;20450;-89
2021/09/05 05:48:28;;;;;;;0.50;0.50;;;13.90;99.90;;;;;;4957747;29;20461;-89
2021/09/05 05:50:55;;;;;;;1.27;1.17;;;14.00;99.90;;;;;;4957415;29;20961;-89
2021/09/05 05:53:22;;;;;;;1.47;0.87;;;14.00;99.90;;;;;;4957687;29;20831;-89
2021/09/05 05:55:49;;;;;;;1.93;1.20;;;14.10;99.90;;;;;;4956649;28;20478;-89
2021/09/05 05:58:15;;;;;;;1.10;0.73;;;14.20;99.90;;;;;;4957687;29;20443;-89
2021/09/05 06:00:43;;;;;;;4.63;0.87;;;14.20;99.90;;;;;;4957748;29;20811;-89
2021/09/05 06:03:11;;;;;;;1.93;1.00;;;14.30;99.90;;;;;;4957862;29;20510;-89
2021/09/05 06:05:38;;;;;;;1.90;1.70;;;14.30;99.90;;;;;;4957774;29;20810;-88
2021/09/05 06:08:05;;;;;;;2.67;1.17;;;14.30;99.90;;;;;;4957848;29;20450;-89
2021/09/05 06:10:32;;;;;;;2.33;0.90;;;14.40;99.90;;;;;;4957580;29;20453;-88
2021/09/05 06:12:59;;;;;;;0.90;0.90;;;14.50;99.90;;;;;;4957250;29;20450;-88
2021/09/05 06:15:26;;;;;;;1.67;0.80;;;14.70;99.90;;;;;;4957139;29;20457;-88
2021/09/05 06:17:52;;;;;;;1.87;0.80;;;14.80;99.90;;;;;;4956912;29;20442;-87
2021/09/05 06:20:20;;;;;;;3.07;0.90;;;14.90;99.90;;;;;;4956697;29;20481;-88
2021/09/05 06:22:47;;;;;;;2.83;1.20;;;15.00;99.90;;;;;;4956897;29;20445;-88
2021/09/05 06:25:14;;;;;;;1.37;0.90;;;15.20;99.90;;;;;;4956694;29;20450;-88
2021/09/05 06:27:41;;;;;;;2.10;0.83;;;15.40;99.90;;;;;;4956737;29;20463;-88
2021/09/05 06:30:08;;;;;;;1.70;1.23;;;15.70;99.90;;;;;;4956941;29;20443;-88
2021/09/05 06:32:35;;;;;;;2.80;1.00;;;15.80;99.90;;;;;;4956803;29;20457;-88
2021/09/05 06:35:02;;;;;;;1.00;0.93;;;15.90;99.90;;;;;;4956685;29;20473;-88
2021/09/05 06:37:30;;;;;;;1.40;0.80;;;16.00;99.90;;;;;;4956735;29;20501;-88
2021/09/05 06:39:57;;;;;;;1.20;0.90;;;16.10;99.90;;;;;;4956482;29;20438;-88
2021/09/05 06:42:24;;;;;;;2.00;1.27;;;16.30;99.90;;;;;;4956763;29;20460;-89
2021/09/05 06:44:51;;;;;;;1.57;1.47;;;16.40;99.90;;;;;;4956739;29;20478;-88
2021/09/05 06:47:17;;;;;;;1.30;1.10;;;16.60;99.90;;;;;;4956668;29;20451;-89
2021/09/05 06:49:44;;;;;;;3.40;1.00;;;16.80;99.90;;;;;;5231381;23;20543;-87
2021/09/05 06:52:11;;;;;;;1.50;1.10;;;17.00;99.90;;;;;;5117562;23;20508;-87
2021/09/05 06:54:39;;;;;;;1.17;0.90;;;17.00;99.90;;;;;;4976326;28;20470;-89
2021/09/05 07:02:17;;;;;;;1.60;1.00;;;16.90;99.90;;;;;;5407379;23;20488;-81
2021/09/05 07:04:44;;;;;;;1.30;0.97;;;16.80;99.90;;;;;;4974503;28;20477;-81
2021/09/05 07:07:11;;;;;;;0.90;0.90;;;16.80;99.90;;;;;;4974824;28;20434;-82
2021/09/05 07:09:39;;;;;;;1.40;1.30;;;16.70;99.90;;;;;;4975397;28;20418;-81
2021/09/05 07:12:06;;;;;;;1.50;1.03;;;16.70;99.90;;;;;;4974748;28;20448;-82
2021/09/05 07:14:33;;;;;;;1.10;0.87;;;16.70;99.90;;;;;;4974666;28;20473;-82
2021/09/05 07:17:01;;;;;;;1.10;0.90;;;16.80;99.90;;;;;;4974516;28;20480;-81
2021/09/05 07:19:28;;;;;;;1.10;1.00;;;16.90;99.90;;;;;;4974663;28;20440;-82
2021/09/05 07:21:54;;;;;;;0.90;0.70;;;17.10;99.90;;;;;;4974501;28;20442;-81
2021/09/05 07:24:21;;;;;;;2.17;1.30;;;17.30;99.90;;;;;;4974387;28;20445;-81
2021/09/05 07:26:49;;;;;;;2.87;1.20;;;17.50;99.90;;;;;;4974538;28;20448;-82
2021/09/05 07:29:18;;;;;;;1.67;1.10;;;17.60;99.90;;;;;;4974294;28;20532;-82
2021/09/05 07:31:44;;;;;;;2.03;1.33;;;17.80;99.90;;;;;;4974213;28;20459;-82
2021/09/05 07:34:11;;;;;;;2.30;1.40;;;18.00;99.90;;;;;;4974069;28;20485;-81
2021/09/05 07:36:39;;;;;;;4.50;1.50;;;18.20;99.90;;;;;;4974538;28;20487;-82
2021/09/05 07:39:05;;;;;;;2.10;1.10;;;18.40;99.90;;;;;;4974594;28;20449;-82
2021/09/05 07:41:32;;;;;;;1.90;1.20;;;18.60;99.90;;;;;;4974402;28;20458;-82
2021/09/05 07:44:00;;;;;;;6.40;1.27;;;18.70;99.90;;;;;;4974336;28;20476;-82
2021/09/05 07:46:27;;;;;;;1.27;0.97;;;18.80;99.90;;;;;;4974131;28;20442;-82
2021/09/05 07:48:54;;;;;;;0.90;0.80;;;18.90;99.90;;;;;;4974331;28;20461;-82
2021/09/05 07:51:24;;;;;;;2.93;2.00;;;19.00;99.90;;;;;;4974367;28;20450;-81
2021/09/05 07:53:51;;;;;;;2.00;1.03;;;19.20;99.90;;;;;;4974626;28;20540;-83
2021/09/05 07:56:18;;;;;;;1.27;0.90;;;19.30;99.90;;;;;;4973927;28;20543;-82
2021/09/05 07:58:45;;;;;;;0.90;0.70;;;19.60;99.90;;;;;;4974082;28;20438;-82
2021/09/05 08:01:13;;;;;;;0.80;0.60;;;19.70;99.90;;;;;;4974096;28;20488;-82
2021/09/05 08:03:40;;;;;;;1.17;1.03;;;19.70;99.90;;;;;;4974160;28;20488;-81
2021/09/05 08:06:07;;;;;;;2.53;1.00;;;19.90;99.90;;;;;;4973910;28;20453;-81
2021/09/05 08:08:35;;;;;;;1.00;0.90;;;20.00;99.90;;;;;;4974226;28;20453;-82
2021/09/05 08:11:03;;;;;;;1.33;1.00;;;20.10;99.90;;;;;;4974047;28;20452;-82
2021/09/05 08:13:29;;;;;;;3.43;1.40;;;20.40;99.90;;;;;;4974056;28;20480;-81
2021/09/05 08:16:00;;;;;;;1.27;1.03;;;20.60;99.90;;;;;;4974053;28;20452;-81
2021/09/05 08:18:29;;;;;;;1.13;1.03;;;20.80;99.90;;;;;;4974392;28;20842;-81
2021/09/05 08:20:56;;;;;;;1.80;1.30;;;21.10;99.90;;;;;;4977024;28;20893;-81
2021/09/05 08:23:23;;;;;;;2.73;1.30;;;21.10;99.90;;;;;;4977646;28;20472;-81
2021/09/05 08:25:50;;;;;;;1.57;0.90;;;21.20;99.90;;;;;;4977593;28;20460;-82
2021/09/05 08:28:17;;;;;;;1.97;1.00;;;21.30;99.90;;;;;;4977603;28;20449;-82
2021/09/05 08:30:44;;;;;;;1.67;1.13;;;21.50;99.90;;;;;;4977315;28;20436;-87
2021/09/05 08:33:11;;;;;;;1.00;0.90;;;21.60;99.90;;;;;;4977526;28;20483;-81
2021/09/05 08:35:39;;;;;;;1.50;0.97;;;21.60;99.90;;;;;;4977186;28;20829;-82
2021/09/05 08:38:08;;;;;;;1.83;1.30;;;21.70;99.90;;;;;;4977357;28;20495;-81
2021/09/05 08:40:39;;;;;;;1.30;0.63;;;21.70;99.90;;;;;;4977818;28;20547;-81
2021/09/05 08:43:05;;;;;;;1.07;0.80;;;21.70;99.90;;;;;;4977341;28;20418;-81
2021/09/05 08:45:33;;;;;;;2.40;1.13;;;21.70;99.90;;;;;;4977324;28;20457;-82
2021/09/05 08:48:01;;;;;;;1.23;0.90;;;21.70;99.90;;;;;;4977003;28;20449;-81
2021/09/05 08:50:28;;;;;;;1.20;1.10;;;21.70;99.90;;;;;;4977743;28;20453;-81
2021/09/05 08:52:56;;;;;;;1.53;1.37;;;21.70;99.90;;;;;;4977078;28;20459;-82
2021/09/05 08:55:23;;;;;;;1.03;0.93;;;21.80;99.90;;;;;;4977316;28;20476;-81
2021/09/05 08:57:50;;;;;;;2.87;1.20;;;21.90;99.90;;;;;;4976754;28;20503;-81
2021/09/05 09:00:17;;;;;;;1.90;1.17;;;22.10;99.90;;;;;;4977082;28;20445;-81
2021/09/05 09:02:45;;;;;;;2.23;1.60;;;22.30;99.90;;;;;;4976573;28;20487;-81
2021/09/05 09:05:15;;;;;;;1.43;0.83;;;22.40;99.90;;;;;;4977044;28;20452;-81
2021/09/05 09:07:46;;;;;;;1.53;1.20;;;22.70;99.90;;;;;;4976924;28;20448;-82
2021/09/05 09:10:16;;;;;;;1.03;0.80;;;22.90;99.90;;;;;;4976837;28;20453;-82
2021/09/05 09:12:46;;;;;;;1.60;0.97;;;23.10;99.90;;;;;;4976497;28;20456;-84
2021/09/05 09:15:24;;;;;;;0.90;0.70;;;23.10;99.90;;;;;;4976844;28;20193;-83
2021/09/05 09:17:54;;;;;;;1.13;1.00;;;23.40;99.90;;;;;;4976705;28;21063;-81
2021/09/05 09:20:40;;;;;;;0.80;0.80;;;23.60;99.90;;;;;;4976736;28;20559;-81
2021/09/05 09:23:09;;;;;;;1.00;0.98;;;23.90;99.90;;;;;;4977407;28;20205;-82
2021/09/05 09:25:37;;;;;;;3.53;1.73;;;24.00;99.90;;;;;;4976338;28;20691;-82
2021/09/05 09:28:26;;;;;;;1.17;0.82;;;24.10;99.90;;;;;;4976564;28;20252;-82
2021/09/05 09:30:53;;;;;;;1.35;1.25;;;24.20;99.90;;;;;;4975390;28;20192;-82
2021/09/05 09:33:21;;;;;;;0.90;0.90;;;24.20;99.90;;;;;;4976363;28;20743;-82
2021/09/05 09:35:49;;;;;;;1.75;1.13;;;24.30;99.90;;;;;;4976502;28;20213;-84
2021/09/05 09:38:17;;;;;;;1.92;1.02;;;24.40;99.90;;;;;;4976045;28;20221;-82
2021/09/05 09:40:47;;;;;;;1.15;1.05;;;24.40;99.90;;;;;;4976067;28;20240;-81
2021/09/05 09:43:21;;;;;;;0.90;0.90;;;24.60;99.90;;;;;;4975928;28;20709;-81
2021/09/05 09:46:29;;;;;;;2.78;1.40;;;24.80;99.90;;;;;;4975962;28;20271;-82
2021/09/05 09:49:27;;;;;;;1.02;1.02;;;24.80;99.90;;;;;;4975696;28;20209;-82
2021/09/05 09:52:03;;;;;;;2.67;0.80;;;24.80;99.90;;;;;;4933303;28;20201;-82
2021/09/05 09:54:33;;;;;;;0.98;0.98;;;25.20;99.90;;;;;;4974434;28;20260;-82
2021/09/05 09:57:28;;;;;;;2.30;1.08;;;25.30;99.90;;;;;;4976243;28;20229;-82
2021/09/05 10:03:29;;;;;;;1.52;1.30;;;25.10;99.90;;;;;;4893910;29;20266;-82
2021/09/05 10:06:00;;;;;;;1.92;1.15;;;24.70;99.90;;;;;;4918393;29;20237;-81
2021/09/05 10:08:28;;;;;;;1.25;1.02;;;24.60;99.90;;;;;;4956508;29;20198;-81
2021/09/05 10:10:58;;;;;;;2.15;1.10;;;24.70;99.90;;;;;;4956513;29;20242;-81
2021/09/05 10:13:36;;;;;;;0.98;0.88;;;24.70;99.90;;;;;;4956381;28;20327;-81
2021/09/05 10:16:03;;;;;;;1.20;0.98;;;24.80;99.90;;;;;;4956070;29;20268;-81
2021/09/05 10:18:34;;;;;;;1.83;1.60;;;24.90;99.60;;;;;;4955907;29;20230;-81
2021/09/05 10:21:08;;;;;;;1.08;0.82;;;24.90;98.60;;;;;;4955358;29;20202;-81
2021/09/05 10:23:59;;;;;;;1.45;0.98;;;24.90;98.20;;;;;;4954836;28;20321;-81
2021/09/05 10:27:00;;;;;;;1.08;1.05;;;24.70;97.40;;;;;;4955838;29;20631;-83
2021/09/05 10:32:49;;;;;;;1.10;0.98;;;25.00;97.00;;;;;;4924905;29;20209;-82
2021/09/05 10:35:39;;;;;;;3.05;1.27;;;25.10;96.70;;;;;;4955808;29;20234;-81
2021/09/05 10:38:25;;;;;;;1.20;1.10;;;25.10;96.10;;;;;;5081669;23;20904;-84
2021/09/05 10:40:55;;;;;;;2.58;0.80;;;25.10;94.00;;;;;;4976747;28;20236;-84
2021/09/05 10:43:22;;;;;;;2.70;1.15;;;25.10;96.40;;;;;;4975929;28;20217;-84
2021/09/05 10:45:51;;;;;;;1.13;1.02;;;25.20;94.60;;;;;;4974977;28;20205;-85
2021/09/05 10:48:33;;;;;;;1.90;0.93;;;25.20;94.50;;;;;;4975313;28;20216;-84
2021/09/05 10:51:13;;;;;;;1.58;1.30;;;25.30;93.40;;;;;;5267829;23;20193;-87
2021/09/05 10:53:50;;;;;;;1.23;1.13;;;25.30;93.90;;;;;;5173563;23;20602;-84
2021/09/05 10:56:18;;;;;;;1.25;1.00;;;25.30;93.20;;;;;;4975228;28;20194;-84
2021/09/05 10:58:50;;;;;;;2.88;1.00;;;25.50;95.10;;;;;;4974849;28;20206;-84
2021/09/05 11:01:30;;;;;;;1.00;0.90;;;25.90;94.40;;;;;;4975514;28;20197;-84
2021/09/05 11:04:31;;;;;;;0.88;0.88;;;26.20;91.50;;;;;;4975090;28;20221;-84
2021/09/05 11:07:02;;;;;;;2.05;1.08;;;26.30;90.70;;;;;;4974871;28;20191;-85
2021/09/05 11:09:51;;;;;;;1.17;0.80;;;26.00;90.00;;;;;;4974843;28;20280;-83
2021/09/05 11:17:24;;;;;;;1.10;1.00;;;25.60;90.20;;;;;;5754686;23;20623;-84
2021/09/05 11:19:55;;;;;;;1.00;0.90;;;25.40;92.50;;;;;;4975450;28;20208;-83
2021/09/05 11:22:25;;;;;;;1.70;1.00;;;25.20;92.70;;;;;;5716816;23;20249;-84
2021/09/05 11:25:07;;;;;;;1.73;1.40;;;25.10;93.60;;;;;;4974275;28;20255;-82
2021/09/05 11:35:41;;;;;;;1.17;1.05;;;25.30;91.40;;;;;;4987350;23;20244;-81
2021/09/05 11:52:30;;;;;;;1.00;0.90;;;25.00;89.20;;;;;;4952859;29;20237;-82
2021/09/05 11:55:02;;;;;;;0.93;0.88;;;25.00;90.00;;;;;;4956635;28;20237;-82
2021/09/05 11:57:30;;;;;;;1.23;1.13;;;24.90;87.20;;;;;;4958743;29;20210;-83
2021/09/05 11:59:59;;;;;;;1.02;0.70;;;24.90;85.90;;;;;;4958750;29;20190;-82
2021/09/05 12:02:35;;;;;;;1.10;1.00;;;24.90;85.70;;;;;;4958732;29;20190;-82
2021/09/05 12:05:03;;;;;;;0.85;0.85;;;24.90;85.00;;;;;;4958247;28;20222;-81
2021/09/05 12:07:36;;;;;;;1.52;0.88;;;24.70;87.10;;;;;;4959129;29;20182;-81
2021/09/05 12:10:09;;;;;;;1.15;0.88;;;24.60;89.80;;;;;;4958720;29;20202;-80
2021/09/05 12:12:37;;;;;;;0.85;0.85;;;24.50;90.80;;;;;;4958593;29;20543;-80
2021/09/05 12:15:18;;;;;;;1.25;1.00;;;24.50;87.60;;;;;;4958314;28;20321;-80
2021/09/05 12:17:48;;;;;;;1.25;0.70;;;24.40;87.10;;;;;;4958368;29;20218;-81
2021/09/05 12:20:16;;;;;;;1.70;1.17;;;24.20;89.80;;;;;;4958466;29;20195;-81
2021/09/05 12:22:50;;;;;;;1.63;1.08;;;24.10;88.40;;;;;;4958354;29;20214;-81
2021/09/05 12:25:19;;;;;;;1.23;0.85;;;23.90;90.20;;;;;;4958084;29;20182;-80
2021/09/05 12:28:01;;;;;;;1.30;0.93;;;23.90;90.30;;;;;;4958252;29;20282;-81
2021/09/05 12:30:30;;;;;;;1.45;0.80;;;23.90;88.80;;;;;;4957955;29;20693;-80
2021/09/05 12:33:08;;;;;;;2.05;1.00;;;23.80;88.90;;;;;;4958052;28;20198;-80
2021/09/05 12:35:36;;;;;;;1.92;0.98;;;23.80;90.10;;;;;;4957928;29;20197;-80
2021/09/05 12:38:06;;;;;;;1.00;0.85;;;23.80;91.60;;;;;;4957851;29;20217;-81
2021/09/05 12:40:48;;;;;;;1.47;1.37;;;23.80;91.80;;;;;;4957871;29;20202;-80
2021/09/05 12:43:15;;;;;;;1.70;0.70;;;23.90;92.20;;;;;;4957829;28;20218;-80
2021/09/05 12:46:01;;;;;;;1.67;0.80;;;24.00;91.90;;;;;;4957874;29;20647;-80
2021/09/05 12:48:38;;;;;;;2.67;1.00;;;23.90;92.10;;;;;;4958088;29;20186;-80
2021/09/05 12:51:18;;;;;;;0.73;0.73;;;23.80;92.30;;;;;;4957645;29;20233;-81
2021/09/05 12:54:00;;;;;;;2.13;1.35;;;23.80;92.50;;;;;;4957799;28;20262;-81
2021/09/05 12:57:21;;;;;;;1.87;1.70;;;23.80;92.80;;;;;;4957782;29;20237;-81
2021/09/05 12:59:48;;;;;;;0.97;0.87;;;23.60;92.80;;;;;;4898668;29;20188;-81
2021/09/05 13:05:17;;;;;;;1.13;1.03;;;23.70;92.40;;;;;;5059694;23;20252;-81
2021/09/05 13:07:44;;;;;;;1.27;0.80;;;23.80;91.70;;;;;;4977070;28;20186;-81
2021/09/05 13:10:12;;;;;;;1.43;0.80;;;23.90;91.90;;;;;;4976662;28;20280;-81
2021/09/05 13:12:39;;;;;;;2.27;1.10;;;23.70;91.60;;;;;;4976629;28;20182;-81
2021/09/05 13:15:07;;;;;;;1.23;1.07;;;23.60;91.90;;;;;;4976803;28;20248;-81
2021/09/05 13:17:43;;;;;;;;;;;;;;;;;;;;;
2021/09/05 13:20:12;;;;;;;0.83;0.83;;;23.60;91.80;;;;;;4941751;28;20209;-81
2021/09/05 13:22:39;;;;;;;1.30;0.80;;;23.60;91.10;;;;;;4976324;28;20463;-81
2021/09/05 13:25:07;;;;;;;1.23;0.90;;;23.60;91.00;;;;;;4976336;28;20847;-81
2021/09/05 13:27:35;;;;;;;2.83;0.97;;;23.60;91.70;;;;;;4976769;28;20207;-81
2021/09/05 13:30:02;;;;;;;0.70;0.70;;;23.70;91.10;;;;;;4976365;28;20520;-82
2021/09/05 13:32:29;;;;;;;3.40;0.87;;;23.60;90.80;;;;;;4976170;28;20952;-82
2021/09/05 13:34:55;;;;;;;2.07;1.00;;;23.70;89.90;;;;;;4976489;28;20473;-84
2021/09/05 13:37:22;;;;;;;1.33;1.20;;;23.60;90.20;;;;;;4976361;28;20296;-81
2021/09/05 13:39:49;;;;;;;1.30;0.80;;;23.70;88.50;;;;;;4976362;28;20460;-81
2021/09/05 13:42:16;;;;;;;0.93;0.73;;;23.70;87.40;;;;;;4976376;28;20206;-80